Tokushima Airport
RJOS : now visible

Airfield :











YOU CAN JOIN US ON...

 
LOGIN :

Register | Disclaimer

   EN    FR    IT 

 









Legend :    VFR   Marginal VFR   IFR   Intensive IFR   Very Intensive IFR
Visi :
Ceiling :
>= 8 km
>= 3000ft
5 to 8 km
1000 to 3000 ft
1500m to 5 km
500 to 1000 ft
800 to 1500m
200 to 500 ft
< 800m
< 200 ft
Symbols :   Thunderstorms  Fog  Heavy snow  Heavy precipitations  Wind > 20 kt







- Airport Elevation : 26 ft
- IATA code : TKS


RJOS - Tokushima

CURRENT METAR :
  • 211800Z 29004KT 8000 FEW005 SCT180 17/16 Q1012

EXPIRED METARs :
  • 211700Z 02009KT 5000 BR FEW005 BKN180 17/16 Q1012
  • 211641Z 02006KT 5000 BR FEW002 SCT200 17/16 Q1012 RMK 1ST002 A2991
  • 211630Z 03008KT 3200 BR FEW002 SCT200 17/16 Q1012 RMK 1ST002 A2991
  • 211615Z 03006KT 2400 R29/1400VP1800U BR FEW001 SCT002 BKN210 17/16 Q1012 RMK 1ST001 4ST002 A2990 RP1800 VIS VRB
  • 211601Z 02008KT 1000 R29/1400U BCFG BR BKN001 17/16 Q1012 RMK 7ST001 A2991 VIS VRB
  • 211540Z 02007KT 0800 R29/0500VP1800U FG OVC001 16/16 Q1012 RMK 8ST001 A2990 R0800 VIS VRB
  • 211510Z 02007KT 0900 R29/0550V0750N FG OVC001 16/16 Q1012 RMK 8ST001 A2991 R0600 VIS VRB

TAF N/A
RJJJ FIR / Asia



MET'MAP, your aeronautical weather chart ! - Copyright ORBIFLY December 2007 - Disclaimer

ORBIFLY MET'MAP TEAM :

Programming & Development : Alexandra Zaïnal
Concept & Development : Baudouin d'Aumeries
Co-Development & Prog : Marc-Olivier Méhu
Technical & hardware support : Manuel Goepfert

Contact : metmap@orbifly.com




SOURCES & CREDITS :

   NOAA       Earth
Advisory